Chatham, Ohio
Current Conditions -  °F | °C
As of 12:19 AM on Tuesday 21 Oct 2014 (Local Time) from KBJJ Reporting Station
Light Rain Light Rain  
Wind Chill: 52°   Ceiling: 900
Heat Index: 52°   Visibility: 3mi
Dew Point: 50°   Wind: 5mph
Humidity: 93%   Direction: 250°WSW
Pressure: 29.86"   Gusts: NA
Location:  41.1389°N, 81.8638°W
Report Text: KBJJ 210419Z AUTO 25004KT 3SM -RA BR BKN009 OVC021 11/10 A2986 RMK AO2 RAB09 CIG 006V015 P0000 T01110100 TSNO
Loading
Personal Weather Stations






























Interactive Weather Map
Tropical Storm Tracking
New forecast layout! Learn more

10-Day Weather Forecast

Advertisements
Track Severe Weather on mobile